Time;durP1;ratioP1;P1;durP2;ratioP2;P2;SDS_P1;SDS_P2;PMS_P1;PMS_P2;Temp;Humidity;BMP_temperature;BMP_pressure;BME280_temperature;BME280_humidity;BME280_pressure;Samples;Min_cycle;Max_cycle;Signal;HPM_P1;HPM_P2
2022/05/10 00:01:37;;;;;;;9.02;4.18;;;;;;;13.13;100.00;97123.97;5015219;28;20060;-73
2022/05/10 00:04:04;;;;;;;6.88;4.10;;;;;;;13.24;100.00;97122.28;5013791;28;20567;-74
2022/05/10 00:06:35;;;;;;;8.98;4.18;;;;;;;13.22;100.00;97125.19;5013459;28;20048;-73
2022/05/10 00:09:00;;;;;;;7.22;4.07;;;;;;;13.09;100.00;97115.59;5017178;28;20144;-76
2022/05/10 00:11:26;;;;;;;9.65;4.50;;;;;;;13.08;100.00;97118.53;5010939;28;20045;-74
2022/05/10 00:13:51;;;;;;;7.93;4.38;;;;;;;13.16;100.00;97118.13;5015553;28;20096;-73
2022/05/10 00:16:18;;;;;;;9.32;4.30;;;;;;;13.09;100.00;97110.22;5016686;28;20404;-72
2022/05/10 00:18:45;;;;;;;6.78;4.38;;;;;;;13.15;100.00;97118.34;5016788;28;20033;-75
2022/05/10 00:21:13;;;;;;;8.07;4.70;;;;;;;13.09;100.00;97120.97;5014387;28;20960;-73
2022/05/10 00:23:38;;;;;;;6.68;4.43;;;;;;;12.95;100.00;97105.47;5015089;28;20037;-75
2022/05/10 00:26:04;;;;;;;7.15;4.30;;;;;;;12.90;100.00;97118.81;5013179;28;20049;-74
2022/05/10 00:28:30;;;;;;;7.50;4.50;;;;;;;12.91;100.00;97107.81;5016719;28;20041;-75
2022/05/10 00:30:55;;;;;;;6.63;4.43;;;;;;;12.88;100.00;97108.31;5012186;28;20053;-75
2022/05/10 00:33:30;;;;;;;7.63;4.28;;;;;;;12.89;100.00;97109.13;5013813;28;20084;-76
2022/05/10 00:35:57;;;;;;;8.68;4.47;;;;;;;12.92;100.00;97104.09;5013026;28;20052;-72
2022/05/10 00:38:30;;;;;;;7.45;4.35;;;;;;;12.95;100.00;97111.63;5015772;28;20045;-76
2022/05/10 00:40:56;;;;;;;6.20;4.30;;;;;;;12.96;100.00;97099.84;5013616;28;20038;-73
2022/05/10 00:43:36;;;;;;;7.18;4.10;;;;;;;12.95;100.00;97102.78;5014899;28;20399;-74
2022/05/10 00:46:08;;;;;;;9.70;4.80;;;;;;;12.92;100.00;97098.72;5014031;28;20056;-77
2022/05/10 00:48:39;;;;;;;;;;;;;;;12.97;100.00;97101.44;5016723;28;20107;-74
2022/05/10 00:51:17;;;;;;;15.82;4.70;;;;;;;12.97;100.00;97096.06;5012950;28;19917;-74
2022/05/10 00:53:57;;;;;;;7.72;4.38;;;;;;;12.97;100.00;97090.72;5015926;28;20587;-73
2022/05/10 00:56:42;;;;;;;7.70;4.50;;;;;;;12.85;100.00;97095.41;5013576;28;20052;-74
2022/05/10 00:59:15;;;;;;;8.32;4.75;;;;;;;12.79;100.00;97089.13;5013161;28;20053;-75
2022/05/10 01:01:44;;;;;;;6.43;4.78;;;;;;;12.78;100.00;97092.06;5013092;28;20048;-76
2022/05/10 01:04:25;;;;;;;8.05;4.70;;;;;;;12.77;100.00;97085.06;5017534;28;20037;-72
2022/05/10 01:06:58;;;;;;;8.15;4.40;;;;;;;12.80;100.00;97081.88;5011030;28;20044;-74
2022/05/10 01:09:40;;;;;;;10.68;5.10;;;;;;;12.81;100.00;97078.13;5012143;28;20407;-72
2022/05/10 01:12:19;;;;;;;11.70;4.97;;;;;;;12.84;100.00;97083.03;5012098;28;20106;-75
2022/05/10 01:14:54;;;;;;;7.88;4.50;;;;;;;12.88;100.00;97065.34;5011697;28;20042;-74
2022/05/10 01:17:21;;;;;;;7.43;4.43;;;;;;;12.89;100.00;97075.03;5013193;28;20037;-77
2022/05/10 01:19:47;;;;;;;9.45;4.60;;;;;;;12.86;100.00;97070.16;5015198;28;20040;-73
2022/05/10 01:22:34;;;;;;;6.10;4.13;;;;;;;12.80;100.00;97066.56;5011194;28;20176;-74
2022/05/10 01:25:37;;;;;;;9.05;4.30;;;;;;;12.73;100.00;97065.94;5012670;28;20046;-75
2022/05/10 01:28:33;;;;;;;9.02;4.40;;;;;;;12.69;100.00;97058.66;5014555;28;20397;-73
2022/05/10 01:31:04;;;;;;;8.02;4.10;;;;;;;12.64;100.00;97055.88;5011632;28;20058;-73
2022/05/10 01:33:35;;;;;;;7.15;4.60;;;;;;;12.70;100.00;97062.94;5015794;28;20396;-74
2022/05/10 01:36:28;;;;;;;6.68;4.45;;;;;;;12.72;100.00;97060.81;5013441;28;20077;-75
2022/05/10 01:39:02;;;;;;;;;;;;;;;12.72;100.00;97067.00;5013001;28;20646;-74
2022/05/10 01:41:47;;;;;;;12.30;4.60;;;;;;;12.64;100.00;97055.88;5013836;28;19952;-73
2022/05/10 01:44:15;;;;;;;7.82;4.43;;;;;;;12.55;100.00;97063.53;4996718;28;20053;-75
2022/05/10 01:46:40;;;;;;;10.02;4.88;;;;;;;12.40;100.00;97056.06;5010805;28;20068;-73
2022/05/10 01:49:47;;;;;;;9.38;4.57;;;;;;;12.39;100.00;97059.00;5014197;28;20145;-75
2022/05/10 01:52:42;;;;;;;7.85;5.18;;;;;;;12.33;100.00;97058.09;4970518;28;20141;-76
2022/05/10 01:55:31;;;;;;;7.40;4.60;;;;;;;12.33;100.00;97060.78;5012088;28;20049;-73
2022/05/10 01:58:07;;;;;;;8.88;5.10;;;;;;;12.30;100.00;97055.91;5013586;28;20144;-73
2022/05/10 02:00:34;;;;;;;6.40;4.60;;;;;;;12.32;100.00;97052.97;5013379;28;20054;-74
2022/05/10 02:03:13;;;;;;;8.48;4.68;;;;;;;12.28;100.00;97058.81;4992525;28;20046;-76
2022/05/10 02:06:06;;;;;;;7.30;5.00;;;;;;;12.19;100.00;97056.78;4993467;28;20056;-73
2022/05/10 02:08:47;;;;;;;10.55;4.72;;;;;;;12.22;100.00;97053.66;5013134;28;20656;-74
2022/05/10 02:11:15;;;;;;;6.85;4.82;;;;;;;12.14;100.00;97054.03;5011302;28;20042;-74
2022/05/10 02:13:52;;;;;;;8.80;5.20;;;;;;;12.02;100.00;97050.63;5012388;28;20260;-72
2022/05/10 02:16:26;;;;;;;9.90;5.03;;;;;;;11.92;100.00;97057.44;5012192;28;20120;-75
2022/05/10 02:19:01;;;;;;;8.95;5.90;;;;;;;11.88;100.00;97058.16;5011892;28;20034;-74
2022/05/10 02:21:33;;;;;;;7.80;5.10;;;;;;;11.83;100.00;97064.25;5009608;28;20107;-73
2022/05/10 02:24:28;;;;;;;7.28;5.55;;;;;;;11.76;100.00;97060.88;5014910;28;20037;-77
2022/05/10 02:27:08;;;;;;;8.48;5.47;;;;;;;11.76;100.00;97052.84;5011503;28;20073;-73
2022/05/10 02:29:48;;;;;;;7.93;5.05;;;;;;;11.68;100.00;97055.91;5012264;28;20095;-74
2022/05/10 02:35:09;;;;;;;9.18;4.97;;;;;;;11.70;100.00;97048.44;5012222;28;20041;-74
2022/05/10 02:37:35;;;;;;;8.32;5.85;;;;;;;11.66;100.00;97042.72;5012679;28;20478;-73
2022/05/10 02:40:03;;;;;;;7.95;5.95;;;;;;;11.65;100.00;97041.09;5002800;28;20069;-74
2022/05/10 02:42:29;;;;;;;10.68;5.95;;;;;;;11.63;100.00;97048.59;5015193;28;20116;-74
2022/05/10 02:44:55;;;;;;;9.55;6.20;;;;;;;11.61;100.00;97036.50;5012359;28;20559;-77
2022/05/10 02:47:39;;;;;;;8.27;6.38;;;;;;;11.58;100.00;97039.63;5011079;28;20378;-73
2022/05/10 02:50:21;;;;;;;10.18;5.57;;;;;;;11.48;100.00;97034.09;5009869;28;20045;-74
2022/05/10 02:52:47;;;;;;;15.35;6.22;;;;;;;11.55;100.00;97024.03;5011971;28;20164;-75
2022/05/10 02:55:30;;;;;;;10.50;5.40;;;;;;;11.61;100.00;97013.16;4993566;28;20041;-74
2022/05/10 02:58:00;;;;;;;10.23;6.35;;;;;;;11.56;100.00;97014.94;5013903;28;20091;-74
2022/05/10 03:00:27;;;;;;;11.50;6.57;;;;;;;11.56;100.00;97014.94;5011038;28;20052;-75
2022/05/10 03:02:58;;;;;;;11.55;6.82;;;;;;;11.50;100.00;97023.94;4995534;28;20049;-75
2022/05/10 03:05:23;;;;;;;9.07;6.05;;;;;;;11.53;100.00;97018.94;5013704;28;20038;-76
2022/05/10 03:07:52;;;;;;;10.60;6.38;;;;;;;11.53;100.00;97010.88;5013708;28;20087;-75
2022/05/10 03:10:20;;;;;;;11.45;6.18;;;;;;;11.60;100.00;97010.75;5012632;28;20124;-73
2022/05/10 03:12:45;;;;;;;13.80;6.68;;;;;;;11.62;100.00;97016.66;5000825;28;20108;-73
2022/05/10 03:15:11;;;;;;;8.82;6.10;;;;;;;11.58;100.00;97010.16;5012161;28;20034;-73
2022/05/10 03:17:37;;;;;;;9.77;6.47;;;;;;;11.60;100.00;97011.56;5011749;28;20038;-73
2022/05/10 03:20:03;;;;;;;9.55;6.43;;;;;;;11.50;100.00;97005.19;5012534;28;20112;-75
2022/05/10 03:22:29;;;;;;;9.55;5.95;;;;;;;11.40;100.00;97005.81;5012182;28;20040;-74
2022/05/10 03:24:54;;;;;;;7.43;6.05;;;;;;;11.41;100.00;97005.56;5013991;28;20038;-73
2022/05/10 03:27:20;;;;;;;9.65;5.93;;;;;;;11.36;100.00;96996.63;5007179;28;20461;-75
2022/05/10 03:29:45;;;;;;;9.27;6.40;;;;;;;11.38;100.00;96998.03;5013089;28;20406;-74
2022/05/10 03:32:11;;;;;;;12.85;6.28;;;;;;;11.50;100.00;97006.00;5010951;28;20514;-75
2022/05/10 03:34:54;;;;;;;9.18;6.68;;;;;;;11.47;100.00;97008.34;5014245;28;20049;-73
2022/05/10 03:37:24;;;;;;;9.65;6.32;;;;;;;11.45;100.00;97011.28;5014579;28;20046;-75
2022/05/10 03:39:50;;;;;;;10.52;6.57;;;;;;;11.50;100.00;97008.66;5016467;28;20527;-73
2022/05/10 03:42:15;;;;;;;8.55;6.13;;;;;;;11.50;100.00;97002.50;5017086;28;20041;-73
2022/05/10 03:44:41;;;;;;;7.78;5.95;;;;;;;11.50;100.00;97002.50;5016356;28;20030;-76
2022/05/10 03:47:09;;;;;;;10.23;6.25;;;;;;;11.42;100.00;97009.06;4996805;28;20037;-75
2022/05/10 03:49:35;;;;;;;8.88;6.10;;;;;;;11.51;100.00;97010.28;5017405;28;20107;-73
2022/05/10 03:52:04;;;;;;;13.07;6.10;;;;;;;11.59;100.00;97014.44;5012741;28;20042;-74
2022/05/10 03:54:30;;;;;;;13.55;6.40;;;;;;;11.56;100.00;97013.06;5014691;28;20032;-75
2022/05/10 03:56:55;;;;;;;9.27;6.03;;;;;;;11.50;100.00;97010.53;5014015;28;20099;-75
2022/05/10 03:59:22;;;;;;;8.90;5.85;;;;;;;11.57;100.00;97012.00;5015133;28;20551;-73
2022/05/10 04:01:47;;;;;;;11.30;6.28;;;;;;;11.59;100.00;97017.13;5014338;28;20099;-74
2022/05/10 04:04:17;;;;;;;12.38;6.13;;;;;;;11.49;100.00;97008.91;5014416;28;20073;-74
2022/05/10 04:06:43;;;;;;;14.23;6.50;;;;;;;11.41;100.00;97005.56;5016318;28;20068;-75
2022/05/10 04:09:08;;;;;;;13.68;6.30;;;;;;;11.45;100.00;97000.56;5014545;28;20388;-75
2022/05/10 04:11:35;;;;;;;8.48;5.72;;;;;;;11.55;100.00;97005.28;5013293;28;20455;-73
2022/05/10 04:14:01;;;;;;;17.20;7.75;;;;;;;11.57;100.00;97003.16;5014794;28;20052;-75
2022/05/10 04:16:26;;;;;;;11.88;6.85;;;;;;;11.64;100.00;96996.59;5012512;28;20428;-76
2022/05/10 04:18:52;;;;;;;7.55;5.57;;;;;;;11.60;100.00;97000.03;5014840;28;20044;-75
2022/05/10 04:21:18;;;;;;;10.07;5.75;;;;;;;11.62;100.00;96992.53;5012422;28;20587;-74
2022/05/10 04:23:43;;;;;;;9.15;5.95;;;;;;;11.70;100.00;97006.34;5016464;28;20034;-74
2022/05/10 04:26:19;;;;;;;9.20;5.90;;;;;;;11.70;100.00;96995.63;5013051;28;20070;-72
2022/05/10 04:28:45;;;;;;;12.52;6.30;;;;;;;11.78;100.00;96996.28;5016727;28;20120;-75
2022/05/10 04:31:11;;;;;;;9.98;6.55;;;;;;;11.93;100.00;96991.22;5012710;28;20500;-73
2022/05/10 04:33:39;;;;;;;11.32;6.10;;;;;;;11.97;100.00;96998.50;5015931;28;20246;-73
2022/05/10 04:36:05;;;;;;;9.98;5.90;;;;;;;12.04;100.00;96990.31;5015386;28;20053;-73
2022/05/10 04:38:31;;;;;;;9.65;5.50;;;;;;;12.08;100.00;96996.81;5014208;28;20037;-73
2022/05/10 04:43:41;;;;;;;10.30;5.80;;;;;;;12.15;100.00;97002.03;5014563;28;20575;-73
2022/05/10 04:46:07;;;;;;;13.95;6.22;;;;;;;12.21;100.00;97001.81;5013774;28;20294;-73
2022/05/10 04:48:33;;;;;;;7.65;5.70;;;;;;;12.23;100.00;97006.97;5017889;28;20412;-74
2022/05/10 04:51:00;;;;;;;9.88;5.72;;;;;;;12.25;100.00;97012.91;5013546;28;20046;-72
2022/05/10 04:53:25;;;;;;;9.23;6.18;;;;;;;12.38;100.00;97009.88;4997938;28;20496;-74
2022/05/10 04:55:51;;;;;;;11.45;6.32;;;;;;;12.44;100.00;97013.44;5014120;28;20064;-73
2022/05/10 04:58:17;;;;;;;7.88;5.45;;;;;;;12.48;100.00;97012.69;5012699;28;20492;-76
2022/05/10 05:00:42;;;;;;;10.35;6.93;;;;;;;12.59;100.00;97007.47;5015198;28;20065;-74
2022/05/10 05:03:08;;;;;;;11.30;6.10;;;;;;;12.60;100.00;97017.16;5012795;28;20473;-75
2022/05/10 05:05:33;;;;;;;10.35;5.70;;;;;;;12.67;100.00;97020.47;5012728;28;20169;-72
2022/05/10 05:07:59;;;;;;;8.88;5.72;;;;;;;12.76;100.00;97014.44;5012995;28;20053;-73
2022/05/10 05:10:24;;;;;;;9.43;5.97;;;;;;;12.77;100.00;97013.38;5012583;28;20044;-72
2022/05/10 05:12:51;;;;;;;9.32;5.60;;;;;;;12.86;100.00;97013.75;5013870;28;20381;-75
2022/05/10 05:15:17;;;;;;;9.23;5.35;;;;;;;12.92;100.00;97009.25;5013155;28;20045;-74
2022/05/10 05:17:43;;;;;;;9.45;5.35;;;;;;;13.16;100.00;97018.69;5013047;28;20099;-72
2022/05/10 05:20:10;;;;;;;10.10;5.55;;;;;;;13.35;100.00;97016.50;5013935;28;20049;-74
2022/05/10 05:22:35;;;;;;;10.35;5.10;;;;;;;13.49;100.00;97028.50;5014506;28;20037;-73
2022/05/10 05:25:01;;;;;;;8.65;5.28;;;;;;;13.59;100.00;97014.31;5014537;28;20037;-73
2022/05/10 05:27:27;;;;;;;6.80;5.13;;;;;;;13.66;100.00;97023.81;5014185;28;20037;-73
2022/05/10 05:29:55;;;;;;;13.32;5.72;;;;;;;13.75;100.00;97015.28;5010981;28;20742;-72
2022/05/10 05:32:26;;;;;;;8.25;5.10;;;;;;;13.81;100.00;97020.47;5011857;28;20060;-75
2022/05/10 05:34:55;;;;;;;8.45;4.90;;;;;;;13.88;100.00;97022.94;5014593;28;20105;-74
2022/05/10 05:37:32;;;;;;;6.90;5.07;;;;;;;13.89;100.00;97019.19;5010431;28;20098;-72
2022/05/10 05:39:59;;;;;;;9.00;5.47;;;;;;;13.95;100.00;97023.56;5012126;28;20412;-73
2022/05/10 05:42:24;;;;;;;8.38;5.30;;;;;;;13.96;100.00;97019.78;5011949;28;20052;-74
2022/05/10 05:44:50;;;;;;;11.95;5.70;;;;;;;14.00;100.00;97020.06;5013543;28;20661;-76
2022/05/10 05:47:16;;;;;;;8.82;6.05;;;;;;;14.07;100.00;97021.47;5010160;28;20038;-75
2022/05/10 05:49:41;;;;;;;10.43;7.03;;;;;;;14.01;100.00;97019.00;5002965;28;20046;-73
2022/05/10 05:52:07;;;;;;;9.38;6.45;;;;;;;14.07;100.00;97013.41;5012099;28;20054;-73
2022/05/10 05:54:33;;;;;;;9.90;6.15;;;;;;;14.03;100.00;97017.69;5012261;28;20091;-74
2022/05/10 05:57:04;;;;;;;10.48;6.78;;;;;;;14.03;100.00;97014.19;5009540;28;20041;-75
2022/05/10 05:59:30;;;;;;;9.15;6.28;;;;;;;14.13;100.00;97009.69;5014254;28;20053;-72
2022/05/10 06:01:56;;;;;;;12.38;7.00;;;;;;;14.21;100.00;97011.09;5011802;28;20077;-77
2022/05/10 06:04:22;;;;;;;11.43;6.72;;;;;;;14.30;100.00;97011.44;5011199;28;20569;-74
2022/05/10 06:06:47;;;;;;;10.60;5.60;;;;;;;14.33;100.00;97010.94;5010171;28;20064;-73
2022/05/10 06:09:13;;;;;;;10.30;6.13;;;;;;;14.42;100.00;97010.19;5011930;28;20530;-73
2022/05/10 06:11:41;;;;;;;8.57;5.47;;;;;;;14.49;100.00;97007.31;5015650;28;20069;-72
2022/05/10 06:14:07;;;;;;;9.95;5.40;;;;;;;14.59;100.00;97003.84;5012630;28;20045;-75
2022/05/10 06:16:33;;;;;;;12.10;5.90;;;;;;;14.68;100.00;97007.66;5010974;28;20047;-74
2022/05/10 06:18:59;;;;;;;9.80;5.82;;;;;;;14.79;100.00;97008.56;5013346;28;20125;-72
2022/05/10 06:21:24;;;;;;;13.05;7.07;;;;;;;14.89;100.00;97008.59;5008179;28;20124;-75
2022/05/10 06:23:50;;;;;;;8.80;5.50;;;;;;;15.03;100.00;97015.13;5010528;28;20139;-72
2022/05/10 06:26:15;;;;;;;8.25;5.50;;;;;;;15.16;100.00;97005.72;5009546;28;20033;-73
2022/05/10 06:28:41;;;;;;;11.18;5.88;;;;;;;15.27;100.00;97010.09;5012194;28;20127;-73
2022/05/10 06:31:09;;;;;;;10.23;6.03;;;;;;;15.43;100.00;96997.47;5009465;28;20046;-74
2022/05/10 06:33:35;;;;;;;10.00;6.25;;;;;;;15.65;100.00;97005.38;5012226;28;20088;-77
2022/05/10 06:36:01;;;;;;;10.32;6.18;;;;;;;15.84;100.00;96998.38;5008858;28;20484;-75
2022/05/10 06:38:31;;;;;;;9.05;5.68;;;;;;;16.00;100.00;96997.28;5010541;28;20094;-73
2022/05/10 06:41:03;;;;;;;15.57;6.45;;;;;;;16.12;100.00;97003.25;5011626;28;20045;-73
2022/05/10 06:43:29;;;;;;;15.73;6.50;;;;;;;16.25;100.00;97007.25;5012656;28;20128;-75
2022/05/10 06:46:12;;;;;;;10.55;6.20;;;;;;;16.39;100.00;96992.13;4995560;28;20103;-72
2022/05/10 06:48:39;;;;;;;9.77;5.75;;;;;;;16.55;100.00;96997.50;5008604;28;20440;-77
2022/05/10 06:51:06;;;;;;;12.82;5.40;;;;;;;16.64;100.00;96995.88;5010236;28;20049;-72
2022/05/10 06:53:33;;;;;;;9.25;5.35;;;;;;;16.74;100.00;96990.47;5012085;28;20037;-76
2022/05/10 06:55:59;;;;;;;9.50;6.00;;;;;;;16.80;100.00;96992.06;5011724;28;20591;-74
2022/05/10 06:58:24;;;;;;;9.80;5.38;;;;;;;16.82;100.00;96981.81;5011052;28;20030;-74
2022/05/10 07:00:50;;;;;;;9.32;5.25;;;;;;;16.89;100.00;96982.31;5009797;28;20060;-75
2022/05/10 07:03:22;;;;;;;11.25;5.28;;;;;;;16.89;100.00;96982.31;5012427;28;20117;-73
2022/05/10 07:05:47;;;;;;;8.32;4.78;;;;;;;16.88;100.00;96991.50;5010822;28;20053;-74
2022/05/10 07:08:13;;;;;;;9.30;4.93;;;;;;;16.87;100.00;96989.06;5015998;28;20038;-75
2022/05/10 07:10:39;;;;;;;11.13;5.63;;;;;;;16.86;100.00;96980.16;5015178;28;20037;-74
2022/05/10 07:13:04;;;;;;;8.60;4.78;;;;;;;16.94;100.00;96979.59;5019953;28;20042;-73
2022/05/10 07:15:30;;;;;;;36.65;6.70;;;;;;;17.06;100.00;96979.28;5016782;28;20037;-74
2022/05/10 07:17:55;;;;;;;16.88;4.70;;;;;;;17.19;100.00;96980.56;5015902;28;20042;-75
2022/05/10 07:20:21;;;;;;;11.60;4.50;;;;;;;17.29;100.00;96983.22;5015907;28;20041;-77
2022/05/10 07:22:49;;;;;;;6.00;4.50;;;;;;;17.40;100.00;96984.78;5015242;28;20041;-72
2022/05/10 07:25:21;;;;;;;12.23;4.72;;;;;;;17.53;100.00;96986.06;5014189;28;20045;-74
2022/05/10 07:27:47;;;;;;;8.30;4.45;;;;;;;17.57;100.00;96980.91;5018173;28;20065;-75
2022/05/10 07:30:14;;;;;;;6.93;4.70;;;;;;;17.67;100.00;96978.94;5016008;28;20030;-74
2022/05/10 07:32:40;;;;;;;7.32;4.60;;;;;;;17.75;100.00;96974.88;5016406;28;20041;-74
2022/05/10 07:35:06;;;;;;;7.95;4.78;;;;;;;17.77;100.00;96970.78;5017569;28;20052;-72
2022/05/10 07:37:34;;;;;;;11.27;4.72;;;;;;;17.84;100.00;96978.59;5020451;28;20476;-73
2022/05/10 07:40:01;;;;;;;8.65;4.75;;;;;;;17.86;100.00;96965.56;5014857;28;20034;-72
2022/05/10 07:42:26;;;;;;;12.65;5.07;;;;;;;17.89;100.00;96981.22;5017505;28;20034;-73
2022/05/10 07:44:52;;;;;;;11.80;5.25;;;;;;;18.02;100.00;96977.88;5016177;28;20047;-71
2022/05/10 07:47:18;;;;;;;20.60;4.88;;;;;;;18.07;100.00;96979.75;5017990;28;20052;-76
2022/05/10 07:49:44;;;;;;;16.60;5.63;;;;;;;18.16;100.00;96979.97;5018711;28;20139;-73
2022/05/10 07:52:09;;;;;;;11.15;4.95;;;;;;;18.26;100.00;96977.94;5014428;28;20026;-77
2022/05/10 07:54:36;;;;;;;13.23;4.80;;;;;;;18.42;100.00;96970.50;5015920;28;20042;-75
2022/05/10 07:57:05;;;;;;;10.48;5.05;;;;;;;18.64;100.00;96975.41;5011994;28;20089;-74
2022/05/10 07:59:31;;;;;;;13.95;4.57;;;;;;;18.76;100.00;96964.22;5014877;28;20958;-73
2022/05/10 08:01:58;;;;;;;19.10;5.13;;;;;;;18.78;99.78;96968.25;5014872;28;20053;-74
2022/05/10 08:04:25;;;;;;;12.18;5.15;;;;;;;18.76;99.21;96965.03;5013717;28;20037;-72
2022/05/10 08:06:52;;;;;;;8.30;5.15;;;;;;;18.91;100.00;96964.03;5013074;28;20397;-72
2022/05/10 08:09:19;;;;;;;9.20;5.00;;;;;;;19.00;100.00;96956.88;5013586;28;20439;-72
2022/05/10 08:11:46;;;;;;;12.27;4.78;;;;;;;19.12;100.00;96961.88;5011169;28;20053;-72
2022/05/10 08:14:12;;;;;;;15.95;4.68;;;;;;;19.29;100.00;96950.53;5014487;28;20044;-73
2022/05/10 08:16:38;;;;;;;9.18;4.70;;;;;;;19.35;100.00;96961.03;5014149;28;20400;-73
2022/05/10 08:19:03;;;;;;;8.45;5.38;;;;;;;19.44;96.56;96953.03;4998281;28;20038;-73
2022/05/10 08:21:29;;;;;;;8.40;5.05;;;;;;;19.54;97.48;96955.63;5012925;28;20069;-73
2022/05/10 08:23:55;;;;;;;8.40;4.80;;;;;;;19.73;94.56;96951.00;5014402;28;20041;-73
2022/05/10 08:26:24;;;;;;;10.95;4.82;;;;;;;19.73;94.56;96948.28;5009411;28;20044;-73
2022/05/10 08:28:50;;;;;;;8.98;4.80;;;;;;;19.80;94.99;96955.25;5014678;28;20396;-72
2022/05/10 08:31:16;;;;;;;7.72;5.43;;;;;;;19.67;92.72;96954.88;5009482;28;20140;-72
2022/05/10 08:33:43;;;;;;;9.20;5.25;;;;;;;19.62;91.94;96952.25;5014122;28;20469;-72
2022/05/10 08:36:11;;;;;;;11.23;5.65;;;;;;;19.40;92.83;96957.44;5011519;28;20120;-73
2022/05/10 08:38:37;;;;;;;10.10;5.32;;;;;;;19.34;93.02;96959.41;5002059;28;20044;-73
2022/05/10 08:41:45;;;;;;;9.27;4.97;;;;;;;19.54;94.85;96943.94;5011845;28;20041;-74
2022/05/10 08:44:11;;;;;;;10.05;5.32;;;;;;;19.65;91.43;96953.56;4921132;29;20094;-73
2022/05/10 08:46:41;;;;;;;9.10;4.93;;;;;;;19.65;94.71;96954.38;4922661;29;20063;-73
2022/05/10 08:49:26;;;;;;;8.20;4.90;;;;;;;19.88;93.71;96941.00;4967873;28;20053;-73
2022/05/10 08:51:52;;;;;;;8.82;4.80;;;;;;;20.10;88.72;96943.91;5010783;28;20786;-72
2022/05/10 08:54:19;;;;;;;9.90;4.95;;;;;;;20.27;90.81;96938.69;5012813;28;20108;-72
2022/05/10 08:57:02;;;;;;;8.82;4.88;;;;;;;20.28;90.63;96931.34;5010884;28;20045;-73
2022/05/10 09:00:09;;;;;;;7.78;5.18;;;;;;;20.30;86.37;96938.09;5012399;28;20102;-73
2022/05/10 09:02:51;;;;;;;10.27;4.82;;;;;;;20.46;87.41;96941.38;4918831;29;20087;-73
2022/05/10 09:05:24;;;;;;;10.38;4.80;;;;;;;20.66;86.08;96934.75;5003740;28;20046;-73
2022/05/10 09:08:00;;;;;;;9.90;5.28;;;;;;;20.68;89.22;96929.81;5010339;28;20033;-72
2022/05/10 09:10:45;;;;;;;11.10;4.78;;;;;;;20.90;85.23;96928.31;5009251;28;20043;-73
2022/05/10 09:13:15;;;;;;;11.90;4.80;;;;;;;21.11;80.15;96930.31;5010909;28;20038;-76
2022/05/10 09:15:49;;;;;;;5.95;4.20;;;;;;;21.28;73.15;96921.53;5011221;28;20041;-72
2022/05/10 09:18:20;;;;;;;13.15;4.82;;;;;;;21.43;73.39;96923.09;5010658;28;20088;-72
2022/05/10 09:20:52;;;;;;;9.18;4.60;;;;;;;21.64;79.25;96915.28;5010759;28;20503;-73
2022/05/10 09:23:22;;;;;;;14.30;4.43;;;;;;;21.73;73.49;96918.88;5010699;28;20092;-73
2022/05/10 09:25:48;;;;;;;13.00;5.10;;;;;;;21.82;71.61;96917.00;5010981;28;20412;-72
2022/05/10 09:28:37;;;;;;;9.23;4.50;;;;;;;21.88;68.29;96913.06;5010154;28;20041;-74
2022/05/10 09:37:21;;;;;;;6.78;4.32;;;;;;;22.35;71.45;96899.91;5011895;28;20052;-73
2022/05/10 09:40:00;;;;;;;;;;;;;;;22.56;64.03;96910.25;5011588;28;20033;-73
2022/05/10 09:42:33;;;;;;;7.20;4.15;;;;;;;22.66;68.10;96901.78;5009600;28;19920;-74
2022/05/10 09:45:26;;;;;;;10.32;4.85;;;;;;;23.02;65.09;96901.59;5011032;28;20041;-73
2022/05/10 09:48:13;;;;;;;6.43;3.97;;;;;;;23.05;53.08;96901.78;4996747;28;20057;-73
2022/05/10 09:50:45;;;;;;;13.15;3.83;;;;;;;22.87;54.53;96916.47;5010440;28;20058;-73
2022/05/10 09:53:21;;;;;;;8.77;4.25;;;;;;;22.59;61.49;96909.63;5010231;28;20041;-73
2022/05/10 09:56:00;;;;;;;8.43;4.50;;;;;;;22.94;61.52;96902.38;5010387;28;20049;-75
2022/05/10 09:58:37;;;;;;;7.90;4.32;;;;;;;23.36;61.46;96895.41;5009422;28;20042;-73
2022/05/10 10:01:06;;;;;;;8.85;4.35;;;;;;;23.23;67.88;96894.41;5007212;28;20547;-74
2022/05/10 10:03:38;;;;;;;8.90;4.45;;;;;;;22.87;66.38;96902.03;5013815;28;20749;-73
2022/05/10 10:06:25;;;;;;;11.57;5.03;;;;;;;22.85;69.25;96896.91;5008170;28;20399;-73
2022/05/10 10:08:57;;;;;;;7.55;4.18;;;;;;;23.16;73.09;96894.09;5013469;28;20046;-73
2022/05/10 10:11:24;;;;;;;13.07;5.25;;;;;;;23.12;65.56;96893.13;5010046;28;20567;-73
2022/05/10 10:13:55;;;;;;;12.93;5.00;;;;;;;23.53;65.46;96891.88;5011991;28;20382;-73
2022/05/10 10:16:27;;;;;;;8.95;4.07;;;;;;;23.60;60.43;96890.28;5010583;28;20392;-73
2022/05/10 10:19:08;;;;;;;7.47;4.10;;;;;;;23.60;59.90;96882.09;5011337;28;20037;-73
2022/05/10 10:21:44;;;;;;;8.75;4.15;;;;;;;23.50;58.83;96887.88;5008665;28;20119;-74
2022/05/10 10:24:28;;;;;;;8.55;4.57;;;;;;;23.66;59.99;96884.66;4316137;28;10000571;-74
2022/05/10 10:27:02;;;;;;;8.57;5.13;;;;;;;23.19;61.32;96884.44;4993674;28;20044;-73
2022/05/10 10:29:39;;;;;;;9.00;5.00;;;;;;;22.88;66.42;96874.47;5006649;28;20045;-73
2022/05/10 10:32:12;;;;;;;8.82;4.72;;;;;;;23.13;70.25;96885.75;5005871;28;20615;-73
2022/05/10 10:34:50;;;;;;;7.50;4.45;;;;;;;23.28;62.31;96883.34;5005797;28;20037;-74
2022/05/10 10:37:35;;;;;;;8.23;4.57;;;;;;;24.33;49.92;96878.59;5007546;28;20119;-73
2022/05/10 10:40:24;;;;;;;7.90;4.45;;;;;;;24.46;50.68;96872.13;4994154;28;20049;-73
2022/05/10 10:42:57;;;;;;;9.25;4.72;;;;;;;24.67;49.87;96864.00;5008154;28;20867;-72
2022/05/10 10:45:36;;;;;;;6.97;4.20;;;;;;;25.51;49.16;96857.47;5005643;28;20057;-73
2022/05/10 10:48:36;;;;;;;6.70;4.20;;;;;;;25.88;43.08;96865.09;4978645;28;20036;-73
2022/05/10 10:51:01;;;;;;;8.35;4.30;;;;;;;25.34;51.95;96865.03;4982645;28;20488;-72
2022/05/10 10:53:28;;;;;;;8.27;5.07;;;;;;;25.82;48.09;96856.28;5006298;28;20551;-74
2022/05/10 10:56:24;;;;;;;6.47;4.53;;;;;;;24.82;52.79;96859.88;5005620;28;20398;-73
2022/05/10 10:59:02;;;;;;;9.95;5.05;;;;;;;25.09;51.34;96845.75;5004937;28;20042;-73
2022/05/10 11:01:58;;;;;;;7.95;4.82;;;;;;;25.53;47.62;96847.00;5006155;28;20522;-72
2022/05/10 11:04:29;;;;;;;5.25;3.80;;;;;;;25.61;41.38;96848.06;5008463;28;20527;-73
2022/05/10 11:06:55;;;;;;;9.52;3.63;;;;;;;25.05;40.72;96842.03;5005279;28;20254;-73
2022/05/10 11:09:43;;;;;;;6.40;3.65;;;;;;;25.32;40.60;96837.19;5006302;28;20041;-73
2022/05/10 11:12:38;;;;;;;7.97;3.30;;;;;;;25.43;39.06;96830.16;5007212;28;20468;-73
2022/05/10 11:15:04;;;;;;;9.75;3.05;;;;;;;25.56;37.53;96835.38;5005828;28;20124;-72
2022/05/10 11:17:48;;;;;;;6.28;2.65;;;;;;;28.00;33.91;96830.97;5007192;28;20460;-73
2022/05/10 11:20:40;;;;;;;5.05;3.50;;;;;;;28.76;29.40;96820.72;5006352;28;20033;-73
2022/05/10 11:23:07;;;;;;;6.65;3.67;;;;;;;28.28;30.30;96819.91;5005879;28;20496;-73
2022/05/10 11:25:51;;;;;;;6.82;2.63;;;;;;;27.27;29.20;96829.31;5008880;28;20288;-74
2022/05/10 11:28:32;;;;;;;7.57;3.28;;;;;;;27.32;31.59;96818.09;5007527;28;20126;-73
2022/05/10 11:31:09;;;;;;;5.68;3.33;;;;;;;28.40;34.35;96808.03;5006906;28;20554;-73
2022/05/10 11:33:50;;;;;;;7.78;3.20;;;;;;;28.52;30.42;96810.72;5006804;28;20045;-73
2022/05/10 11:36:37;;;;;;;5.97;2.92;;;;;;;28.29;29.27;96803.09;5009073;28;20049;-74
2022/05/10 11:39:32;;;;;;;8.32;2.85;;;;;;;28.37;31.99;96804.06;5005620;28;20049;-74
2022/05/10 11:42:19;;;;;;;5.40;3.13;;;;;;;28.85;29.42;96791.81;5006655;28;20049;-73
2022/05/10 11:45:09;;;;;;;6.38;3.20;;;;;;;28.26;29.87;96786.47;5006470;28;20049;-73
2022/05/10 11:47:45;;;;;;;6.53;2.70;;;;;;;29.70;28.04;96789.31;5006853;28;20061;-73
2022/05/10 11:50:39;;;;;;;4.38;2.67;;;;;;;29.80;26.86;96796.19;4976308;28;20096;-73
2022/05/10 11:53:17;;;;;;;5.78;2.67;;;;;;;28.22;30.21;96807.56;5009607;28;20072;-73
2022/05/10 11:55:53;;;;;;;4.50;2.25;;;;;;;27.76;27.29;96802.44;4999098;28;20072;-73
2022/05/10 11:58:23;;;;;;;5.35;2.60;;;;;;;28.21;29.79;96789.47;5008517;28;20046;-73
2022/05/10 12:01:01;;;;;;;4.78;2.78;;;;;;;27.58;28.76;96794.84;5010701;28;20566;-74